Time;durP1;ratioP1;P1;durP2;ratioP2;P2;SDS_P1;SDS_P2;PMS_P1;PMS_P2;Temp;Humidity;BMP_temperature;BMP_pressure;BME280_temperature;BME280_humidity;BME280_pressure;Samples;Min_cycle;Max_cycle;Signal;HPM_P1;HPM_P2
2021/12/02 00:01:30;;;;;;;6.93;1.30;;;;;;;2.89;100.00;99942.34;5088048;28;20035;-76
2021/12/02 00:03:56;;;;;;;7.03;1.10;;;;;;;2.92;100.00;99942.50;5084626;28;20101;-76
2021/12/02 00:06:22;;;;;;;5.53;0.82;;;;;;;2.94;100.00;99935.81;5082003;28;20150;-76
2021/12/02 00:08:49;;;;;;;3.40;0.70;;;;;;;2.98;100.00;99947.84;5088205;28;20050;-76
2021/12/02 00:11:15;;;;;;;7.20;0.80;;;;;;;2.93;100.00;99944.22;5085437;28;20107;-76
2021/12/02 00:14:21;;;;;;;7.03;1.00;;;;;;;2.94;100.00;99945.97;5086748;28;20051;-76
2021/12/02 00:16:40;;;;;;;4.50;0.90;;;;;;;2.96;100.00;99946.88;5081952;28;20052;-75
2021/12/02 00:21:53;;;;;;;5.90;1.20;;;;;;;2.98;100.00;99946.97;5091687;28;20092;-76
2021/12/02 00:24:23;;;;;;;6.82;1.02;;;;;;;2.98;100.00;99945.31;5094130;28;20020;-76
2021/12/02 00:26:51;;;;;;;6.22;1.00;;;;;;;2.99;100.00;99946.16;5092956;28;20030;-75
2021/12/02 00:29:20;;;;;;;7.10;0.95;;;;;;;3.00;100.00;99946.22;5088472;28;20052;-77
2021/12/02 00:31:49;;;;;;;7.97;1.10;;;;;;;2.92;100.00;99945.03;5089973;28;20437;-75
2021/12/02 00:34:15;;;;;;;10.02;0.82;;;;;;;2.85;100.00;99943.91;5087448;28;20027;-75
2021/12/02 00:36:41;;;;;;;6.85;0.85;;;;;;;2.78;100.00;99938.47;5094208;28;20075;-75
2021/12/02 00:39:16;;;;;;;3.95;0.90;;;;;;;2.77;100.00;99941.81;5090346;28;20028;-76
2021/12/02 00:41:42;;;;;;;7.32;1.00;;;;;;;2.78;100.00;99939.31;5087683;28;20111;-76
2021/12/02 00:44:09;;;;;;;6.85;0.80;;;;;;;2.80;100.00;99942.81;5087475;28;20028;-75
2021/12/02 00:46:36;;;;;;;9.15;1.08;;;;;;;2.82;100.00;99940.34;5085864;28;20044;-76
2021/12/02 00:49:03;;;;;;;7.78;1.05;;;;;;;2.79;100.00;99928.41;5092720;28;20019;-75
2021/12/02 00:51:35;;;;;;;3.42;0.90;;;;;;;2.79;100.00;99938.56;5088964;28;20042;-75
2021/12/02 00:54:07;;;;;;;6.05;0.80;;;;;;;2.76;100.00;99940.94;5086506;28;20023;-75
2021/12/02 00:56:33;;;;;;;6.20;1.23;;;;;;;2.81;100.00;99944.56;5085414;28;20432;-76
2021/12/02 00:58:59;;;;;;;6.47;0.90;;;;;;;2.88;100.00;99948.22;5084618;28;20024;-75
2021/12/02 01:01:33;;;;;;;9.05;1.58;;;;;;;2.89;100.00;99957.59;5084907;28;20028;-75
2021/12/02 01:04:00;;;;;;;8.00;1.30;;;;;;;2.91;100.00;99953.44;5087229;28;20107;-75
2021/12/02 01:06:26;;;;;;;6.97;1.33;;;;;;;2.94;100.00;99953.59;5080085;28;20124;-75
2021/12/02 01:08:53;;;;;;;8.82;1.17;;;;;;;2.94;100.00;99951.91;5090379;28;20062;-75
2021/12/02 01:11:19;;;;;;;6.13;1.50;;;;;;;2.95;100.00;99947.69;5090653;28;20040;-75
2021/12/02 01:13:46;;;;;;;9.55;1.23;;;;;;;2.89;100.00;99950.84;5088319;28;20543;-75
2021/12/02 01:16:13;;;;;;;9.02;1.02;;;;;;;2.81;100.00;99942.03;5084863;28;20398;-75
2021/12/02 01:18:38;;;;;;;7.93;1.27;;;;;;;2.86;100.00;99949.84;5087252;28;20679;-76
2021/12/02 01:21:05;;;;;;;9.85;1.40;;;;;;;2.75;100.00;99958.66;5087069;28;20028;-76
2021/12/02 01:23:32;;;;;;;5.88;0.98;;;;;;;2.72;100.00;99953.41;5091044;28;20024;-76
2021/12/02 01:26:05;;;;;;;8.05;1.83;;;;;;;2.71;100.00;99949.16;5085828;28;20123;-76
2021/12/02 01:28:32;;;;;;;9.88;1.30;;;;;;;2.80;100.00;99957.19;5088132;28;20024;-76
2021/12/02 01:30:58;;;;;;;10.73;1.08;;;;;;;2.78;100.00;99958.78;5088658;28;20058;-76
2021/12/02 01:33:26;;;;;;;10.07;1.17;;;;;;;2.76;100.00;99965.47;5090170;28;20035;-76
2021/12/02 01:36:04;;;;;;;7.50;1.40;;;;;;;2.81;100.00;99977.56;5092268;28;20048;-76
2021/12/02 01:38:31;;;;;;;7.85;1.38;;;;;;;2.87;100.00;99982.91;5084859;28;20036;-76
2021/12/02 01:40:59;;;;;;;13.57;1.75;;;;;;;2.91;100.00;99981.38;5086236;28;20036;-76
2021/12/02 01:43:53;;;;;;;7.90;1.13;;;;;;;2.93;100.00;99970.50;5085441;28;20024;-77
2021/12/02 01:46:23;;;;;;;4.38;0.82;;;;;;;2.96;100.00;99969.75;5087038;28;20057;-77
2021/12/02 01:48:58;;;;;;;7.63;0.98;;;;;;;2.92;100.00;99971.28;5092552;28;20027;-77
2021/12/02 01:51:26;;;;;;;6.25;1.10;;;;;;;2.90;100.00;99974.56;5088398;28;20032;-76
2021/12/02 01:54:07;;;;;;;7.10;1.10;;;;;;;2.84;100.00;99962.44;5089700;28;20114;-75
2021/12/02 01:56:43;;;;;;;6.10;0.70;;;;;;;2.78;100.00;99952.03;5083964;28;20378;-76
2021/12/02 01:59:12;;;;;;;2.35;0.60;;;;;;;2.72;100.00;99961.03;5087540;28;20023;-75
2021/12/02 02:01:42;;;;;;;4.95;0.85;;;;;;;2.58;100.00;99957.88;5087795;28;20039;-75
2021/12/02 02:04:07;;;;;;;6.55;0.88;;;;;;;2.41;100.00;99959.66;5086393;28;20055;-76
2021/12/02 02:06:38;;;;;;;4.20;0.93;;;;;;;2.31;100.00;99962.59;5086755;28;20066;-75
2021/12/02 02:09:07;;;;;;;5.00;0.82;;;;;;;2.13;100.00;99954.97;5084280;28;20024;-76
2021/12/02 02:11:33;;;;;;;3.67;1.10;;;;;;;2.11;100.00;99961.63;5086180;28;20116;-76
2021/12/02 02:13:59;;;;;;;8.57;1.52;;;;;;;2.06;100.00;99963.06;5088443;28;20036;-76
2021/12/02 02:16:26;;;;;;;5.88;1.05;;;;;;;2.01;100.00;99962.88;5088099;28;20459;-76
2021/12/02 02:18:52;;;;;;;4.70;1.30;;;;;;;1.98;100.00;99960.19;5088715;28;20111;-76
2021/12/02 02:21:20;;;;;;;5.05;1.02;;;;;;;1.92;100.00;99959.88;5086279;28;20116;-76
2021/12/02 02:23:51;;;;;;;7.05;1.20;;;;;;;1.88;100.00;99960.53;5089088;28;20042;-76
2021/12/02 02:26:23;;;;;;;14.88;1.52;;;;;;;1.83;100.00;99962.00;5087579;28;20035;-76
2021/12/02 02:28:50;;;;;;;9.15;1.55;;;;;;;1.81;100.00;99961.91;5088066;28;20054;-76
2021/12/02 02:31:16;;;;;;;7.28;1.50;;;;;;;1.86;100.00;99964.66;5086243;28;20063;-76
2021/12/02 02:33:43;;;;;;;9.93;1.63;;;;;;;1.91;100.00;99960.69;5088426;28;20114;-76
2021/12/02 02:36:09;;;;;;;8.25;1.60;;;;;;;1.89;100.00;99957.22;5090187;28;20457;-76
2021/12/02 02:38:36;;;;;;;10.75;1.70;;;;;;;1.94;100.00;99967.56;5090706;28;20055;-76
2021/12/02 02:41:04;;;;;;;9.63;1.63;;;;;;;1.93;100.00;99960.75;5088646;28;20078;-76
2021/12/02 02:43:32;;;;;;;11.70;1.70;;;;;;;1.84;100.00;99940.91;5085812;28;20101;-76
2021/12/02 02:45:58;;;;;;;10.20;1.90;;;;;;;1.94;100.00;99957.41;5087517;28;20063;-76
2021/12/02 02:48:24;;;;;;;7.22;1.42;;;;;;;1.86;100.00;99954.53;5087270;28;20028;-75
2021/12/02 02:50:50;;;;;;;9.63;1.90;;;;;;;1.79;100.00;99949.97;5087139;28;20036;-76
2021/12/02 02:53:21;;;;;;;8.65;1.70;;;;;;;1.72;100.00;99963.13;5090620;28;20114;-76
2021/12/02 02:56:31;;;;;;;10.45;1.65;;;;;;;1.68;100.00;99963.78;5089273;28;20742;-76
2021/12/02 03:04:34;;;;;;;5.70;1.75;;;;;;;1.54;100.00;99969.03;5084266;28;20123;-77
2021/12/02 03:06:38;;;;;;;11.93;2.10;;;;;;;1.50;100.00;99974.75;5073224;28;20036;-76
2021/12/02 03:09:14;;;;;;;10.05;1.98;;;;;;;1.54;100.00;99981.72;5086616;28;20025;-76
2021/12/02 03:11:53;;;;;;;14.45;1.95;;;;;;;1.58;100.00;99982.75;5082634;28;20024;-76
2021/12/02 03:16:38;;;;;;;12.13;1.83;;;;;;;1.59;100.00;99984.47;5083677;28;20032;-75
2021/12/02 03:17:09;;;;;;;11.85;1.83;;;;;;;1.65;100.00;99987.31;5081951;28;20040;-76
2021/12/02 03:19:40;;;;;;;10.35;1.80;;;;;;;1.74;100.00;99974.22;5086622;28;20031;-76
2021/12/02 03:22:06;;;;;;;13.15;1.90;;;;;;;1.75;100.00;99986.09;5086352;28;20523;-76
2021/12/02 03:24:32;;;;;;;10.20;1.65;;;;;;;1.74;100.00;99984.34;5085916;28;20411;-75
2021/12/02 03:26:58;;;;;;;14.40;2.00;;;;;;;1.77;100.00;99987.91;5084646;28;20039;-76
2021/12/02 03:29:23;;;;;;;11.05;1.70;;;;;;;1.77;100.00;99984.50;5088166;28;20036;-76
2021/12/02 03:31:49;;;;;;;11.70;1.50;;;;;;;1.79;100.00;99982.91;5087206;28;20048;-76
2021/12/02 03:34:15;;;;;;;9.77;1.75;;;;;;;1.73;100.00;99986.00;5083063;28;20032;-76
2021/12/02 03:36:41;;;;;;;8.45;1.30;;;;;;;1.70;100.00;99987.50;5088767;28;21738;-75
2021/12/02 03:39:08;;;;;;;8.82;1.50;;;;;;;1.62;100.00;99987.16;5087067;28;20462;-77
2021/12/02 03:41:35;;;;;;;10.80;1.10;;;;;;;1.53;100.00;99991.78;5086997;28;20032;-76
2021/12/02 03:44:00;;;;;;;13.02;1.10;;;;;;;1.51;100.00;99990.81;5085951;28;20024;-76
2021/12/02 03:46:26;;;;;;;7.57;1.00;;;;;;;1.55;100.00;99997.78;5077395;28;20040;-76
2021/12/02 03:48:53;;;;;;;9.63;1.35;;;;;;;1.54;100.00;100001.97;5085318;28;20360;-76
2021/12/02 03:51:19;;;;;;;8.38;1.20;;;;;;;1.50;100.00;100000.06;5084571;28;20672;-75
2021/12/02 03:53:45;;;;;;;9.75;1.30;;;;;;;1.45;100.00;99995.56;5088127;28;20107;-76
2021/12/02 03:56:12;;;;;;;8.60;1.30;;;;;;;1.51;100.00;99994.22;5086230;28;20027;-75
2021/12/02 03:58:40;;;;;;;10.27;1.55;;;;;;;1.55;100.00;99998.66;5089016;28;20506;-75
2021/12/02 04:01:07;;;;;;;7.47;1.00;;;;;;;1.56;100.00;99990.25;5086579;28;20020;-76
2021/12/02 04:03:33;;;;;;;10.88;1.20;;;;;;;1.65;100.00;99994.06;5091712;28;20024;-76
2021/12/02 04:05:59;;;;;;;9.00;0.88;;;;;;;1.63;100.00;99976.22;5092177;28;20032;-76
2021/12/02 04:08:46;;;;;;;9.13;1.20;;;;;;;1.66;100.00;99983.13;5090013;28;20028;-76
2021/12/02 04:16:27;;;;;;;6.18;0.98;;;;;;;1.57;100.00;99975.91;5087602;28;20047;-76
2021/12/02 04:18:52;;;;;;;10.85;1.05;;;;;;;1.61;100.00;99987.94;5090342;28;20543;-76
2021/12/02 04:21:17;;;;;;;10.60;1.08;;;;;;;1.65;100.00;99979.72;5085526;28;20107;-76
2021/12/02 04:23:43;;;;;;;13.90;1.05;;;;;;;1.70;100.00;99982.44;5091678;28;20039;-76
2021/12/02 04:26:09;;;;;;;7.47;0.93;;;;;;;1.78;100.00;99993.84;5086796;28;20067;-76
2021/12/02 04:28:34;;;;;;;14.73;1.20;;;;;;;1.81;100.00;100001.59;5090409;28;20490;-76
2021/12/02 04:31:00;;;;;;;14.25;1.30;;;;;;;1.85;100.00;100000.94;5091418;28;20043;-76
2021/12/02 04:33:25;;;;;;;8.50;1.10;;;;;;;1.86;100.00;100000.16;5094101;28;20466;-75
2021/12/02 04:35:52;;;;;;;6.72;1.10;;;;;;;1.87;100.00;100006.97;5089412;28;20044;-75
2021/12/02 04:38:19;;;;;;;4.78;1.13;;;;;;;1.86;100.00;100010.28;5090333;28;20430;-75
2021/12/02 04:40:45;;;;;;;6.72;1.40;;;;;;;1.87;100.00;100024.69;5084994;28;20069;-75
2021/12/02 04:43:11;;;;;;;6.18;1.05;;;;;;;1.83;100.00;100017.75;5090683;28;20085;-75
2021/12/02 04:45:36;;;;;;;5.65;1.05;;;;;;;1.76;100.00;100014.06;5085105;28;20040;-76
2021/12/02 04:48:02;;;;;;;9.70;0.98;;;;;;;1.70;100.00;100012.84;5086116;28;20680;-76
2021/12/02 04:50:27;;;;;;;5.20;0.80;;;;;;;1.61;100.00;100015.81;5088917;28;20032;-76
2021/12/02 04:52:53;;;;;;;2.60;0.60;;;;;;;1.51;100.00;100023.75;5085344;28;20051;-76
2021/12/02 04:55:20;;;;;;;7.45;0.88;;;;;;;1.41;100.00;100019.88;5090621;28;20028;-76
2021/12/02 04:57:46;;;;;;;7.57;0.85;;;;;;;1.30;100.00;100021.00;5086909;28;20484;-75
2021/12/02 05:00:12;;;;;;;6.43;1.52;;;;;;;1.26;100.00;100014.91;5085650;28;20417;-76
2021/12/02 05:02:39;;;;;;;3.03;0.90;;;;;;;1.31;100.00;100018.53;5086558;28;20111;-76
2021/12/02 05:05:06;;;;;;;6.43;0.88;;;;;;;1.39;100.00;100026.53;5085084;28;20035;-76
2021/12/02 05:07:32;;;;;;;4.32;0.88;;;;;;;1.46;100.00;100031.13;5088413;28;20028;-76
2021/12/02 05:09:57;;;;;;;5.50;1.10;;;;;;;1.55;100.00;100040.84;5068036;28;20028;-76
2021/12/02 05:12:22;;;;;;;8.95;1.10;;;;;;;1.60;100.00;100050.44;5087501;28;20036;-76
2021/12/02 05:14:48;;;;;;;5.75;1.20;;;;;;;1.64;100.00;100042.97;5069231;28;20028;-75
2021/12/02 05:17:13;;;;;;;5.82;1.10;;;;;;;1.61;100.00;100048.75;5086805;28;20131;-75
2021/12/02 05:19:38;;;;;;;5.55;1.20;;;;;;;1.59;100.00;100041.09;5067771;28;20032;-76
2021/12/02 05:22:04;;;;;;;8.23;1.30;;;;;;;1.58;100.00;100039.34;5068319;28;20170;-76
2021/12/02 05:24:29;;;;;;;6.85;1.17;;;;;;;1.51;100.00;100034.75;5087922;28;20485;-76
2021/12/02 05:26:55;;;;;;;8.40;1.60;;;;;;;1.53;100.00;100042.44;5067601;28;20036;-76
2021/12/02 05:29:21;;;;;;;6.25;1.65;;;;;;;1.51;100.00;100034.75;5091211;28;20456;-76
2021/12/02 05:31:47;;;;;;;7.68;1.65;;;;;;;1.49;100.00;100038.88;5086227;28;20060;-76
2021/12/02 05:34:12;;;;;;;4.55;1.10;;;;;;;1.44;100.00;100035.22;5086338;28;20060;-76
2021/12/02 05:36:38;;;;;;;3.65;1.30;;;;;;;1.40;100.00;100035.88;5090380;28;20108;-76
2021/12/02 05:39:03;;;;;;;4.55;1.38;;;;;;;1.42;100.00;100035.97;5071770;28;20474;-76
2021/12/02 05:41:31;;;;;;;4.88;1.00;;;;;;;1.38;100.00;100028.97;5087658;28;20039;-76
2021/12/02 05:43:56;;;;;;;4.75;1.10;;;;;;;1.40;100.00;100042.63;5086823;28;20123;-75
2021/12/02 05:46:22;;;;;;;7.30;1.20;;;;;;;1.37;100.00;100050.91;5088937;28;20106;-75
2021/12/02 05:48:47;;;;;;;5.07;0.80;;;;;;;1.42;100.00;100048.63;5068619;28;20029;-75
2021/12/02 05:51:12;;;;;;;7.80;1.15;;;;;;;1.38;100.00;100050.13;5086705;28;20122;-76
2021/12/02 05:53:38;;;;;;;8.60;1.20;;;;;;;1.42;100.00;100056.22;5090065;28;20042;-76
2021/12/02 05:56:04;;;;;;;3.00;1.38;;;;;;;1.43;100.00;100063.91;5090120;28;20032;-76
2021/12/02 05:58:29;;;;;;;4.07;1.13;;;;;;;1.42;100.00;100046.97;5080949;28;20082;-76
2021/12/02 06:00:54;;;;;;;7.00;1.00;;;;;;;1.38;100.00;100054.31;5088644;28;20043;-77
2021/12/02 06:03:20;;;;;;;3.38;0.88;;;;;;;1.30;100.00;100053.94;5088541;28;20063;-76
2021/12/02 06:05:47;;;;;;;4.60;0.80;;;;;;;1.21;100.00;100049.25;5088685;28;20093;-77
2021/12/02 06:08:13;;;;;;;3.20;0.60;;;;;;;1.08;100.00;100047.72;5091763;28;20023;-77
2021/12/02 06:10:39;;;;;;;4.82;0.93;;;;;;;0.95;100.00;100064.72;5086616;28;20075;-76
2021/12/02 06:13:04;;;;;;;2.60;0.77;;;;;;;0.83;100.00;100054.81;5071232;28;20501;-76
2021/12/02 06:15:30;;;;;;;3.20;0.70;;;;;;;0.74;100.00;100049.28;5089307;28;20036;-77
2021/12/02 06:17:55;;;;;;;2.10;0.68;;;;;;;0.66;100.00;100065.69;5091853;28;20040;-76
2021/12/02 06:20:21;;;;;;;3.15;0.82;;;;;;;0.60;100.00;100056.09;5090225;28;20111;-76
2021/12/02 06:22:47;;;;;;;5.80;0.70;;;;;;;0.54;100.00;100056.63;5088382;28;20032;-75
2021/12/02 06:27:47;;;;;;;2.05;0.90;;;;;;;0.48;100.00;100066.41;5091448;28;20059;-76
2021/12/02 06:30:16;;;;;;;7.03;1.08;;;;;;;0.49;100.00;100073.25;5087711;28;20028;-76
2021/12/02 06:32:42;;;;;;;4.78;1.00;;;;;;;0.50;100.00;100072.44;5086202;28;20048;-76
2021/12/02 06:35:09;;;;;;;3.83;0.70;;;;;;;0.44;100.00;100068.72;5089010;28;20789;-77
2021/12/02 06:37:35;;;;;;;5.90;1.05;;;;;;;0.46;100.00;100074.72;5089979;28;20019;-76
2021/12/02 06:40:01;;;;;;;3.65;0.90;;;;;;;0.54;100.00;100079.41;5083862;28;20028;-76
2021/12/02 06:42:26;;;;;;;5.40;1.02;;;;;;;0.65;100.00;100076.59;5088688;28;20047;-77
2021/12/02 06:44:52;;;;;;;5.57;1.00;;;;;;;0.73;100.00;100077.91;5090442;28;20070;-76
2021/12/02 06:47:18;;;;;;;3.85;0.88;;;;;;;0.79;100.00;100083.31;5089332;28;20047;-77
2021/12/02 06:49:44;;;;;;;4.85;0.70;;;;;;;0.69;100.00;100065.88;5090264;28;20051;-76
2021/12/02 06:52:11;;;;;;;7.43;0.90;;;;;;;0.81;100.00;100089.31;5089139;28;20124;-77
2021/12/02 06:54:38;;;;;;;4.25;1.10;;;;;;;0.82;100.00;100083.44;5089695;28;20024;-76
2021/12/02 06:57:04;;;;;;;3.40;0.80;;;;;;;0.91;100.00;100081.44;5086157;28;20043;-77
2021/12/02 06:59:29;;;;;;;4.13;0.80;;;;;;;0.92;100.00;100080.63;5083020;28;20028;-76
2021/12/02 07:01:55;;;;;;;2.85;0.70;;;;;;;0.96;100.00;100095.19;5086839;28;20124;-76
2021/12/02 07:04:21;;;;;;;4.63;0.80;;;;;;;0.90;100.00;100102.44;5089395;28;20407;-75
2021/12/02 07:06:46;;;;;;;5.75;0.82;;;;;;;0.93;100.00;100111.88;5087858;28;20066;-76
2021/12/02 07:09:12;;;;;;;5.38;1.10;;;;;;;0.92;100.00;100112.66;5087545;28;20036;-77
2021/12/02 07:11:38;;;;;;;6.25;1.52;;;;;;;0.97;100.00;100119.72;5087022;28;20020;-76
2021/12/02 07:14:07;;;;;;;9.10;1.73;;;;;;;1.03;100.00;100125.13;5088152;28;20039;-76
2021/12/02 07:16:32;;;;;;;5.43;1.10;;;;;;;1.04;100.00;100124.31;5085502;28;20039;-76
2021/12/02 07:19:02;;;;;;;10.27;1.50;;;;;;;1.04;100.00;100124.31;5088642;28;20043;-77
2021/12/02 07:21:27;;;;;;;4.25;0.80;;;;;;;1.12;100.00;100134.88;5088449;28;20042;-76
2021/12/02 07:23:52;;;;;;;3.80;1.20;;;;;;;1.07;100.00;100094.09;5086575;28;20530;-76
2021/12/02 07:26:18;;;;;;;2.85;0.93;;;;;;;1.08;100.00;100111.03;5072034;28;20038;-77
2021/12/02 07:28:45;;;;;;;11.93;1.60;;;;;;;1.03;100.00;100099.81;5087854;28;20052;-77
2021/12/02 07:31:12;;;;;;;6.25;0.80;;;;;;;1.05;100.00;100107.47;5084575;28;20040;-77
2021/12/02 07:33:39;;;;;;;6.30;0.95;;;;;;;0.98;100.00;100108.81;5087527;28;20440;-77
2021/12/02 07:36:12;;;;;;;5.38;1.40;;;;;;;0.94;100.00;100113.63;5086888;28;20032;-76
2021/12/02 07:38:38;;;;;;;6.90;1.00;;;;;;;0.92;100.00;100127.84;5081589;28;20039;-77
2021/12/02 07:41:04;;;;;;;5.70;1.00;;;;;;;0.90;100.00;100135.34;5087447;28;20024;-76
2021/12/02 07:43:36;;;;;;;5.10;1.05;;;;;;;0.92;100.00;100138.84;5085925;28;20032;-75
2021/12/02 07:46:03;;;;;;;7.20;0.98;;;;;;;0.95;100.00;100138.13;5085503;28;20043;-76
2021/12/02 07:48:29;;;;;;;7.75;1.30;;;;;;;0.90;100.00;100142.94;5088482;28;20038;-77
2021/12/02 07:50:56;;;;;;;6.85;1.38;;;;;;;0.90;100.00;100137.00;5090787;28;20031;-77
2021/12/02 07:53:24;;;;;;;5.47;1.10;;;;;;;0.91;100.00;100139.66;5082740;28;20021;-76
2021/12/02 07:55:52;;;;;;;6.82;1.40;;;;;;;0.93;100.00;100145.66;5087126;28;20118;-76
2021/12/02 07:58:20;;;;;;;4.72;0.80;;;;;;;0.99;100.00;100152.72;5089116;28;20024;-76
2021/12/02 08:00:45;;;;;;;10.13;1.20;;;;;;;0.97;100.00;100142.50;5087513;28;20032;-77
2021/12/02 08:03:12;;;;;;;8.85;1.35;;;;;;;0.98;100.00;100140.84;5084763;28;20120;-76
2021/12/02 08:05:43;;;;;;;5.35;1.13;;;;;;;0.87;100.00;100134.31;5085582;28;19923;-76
2021/12/02 08:08:10;;;;;;;4.45;0.90;;;;;;;0.91;100.00;100154.84;5084071;28;20501;-76
2021/12/02 08:10:37;;;;;;;5.10;0.90;;;;;;;0.89;100.00;100163.13;5091164;28;20031;-77
2021/12/02 08:13:10;;;;;;;7.63;1.10;;;;;;;0.77;100.00;100150.66;5090992;28;20115;-77
2021/12/02 08:15:35;;;;;;;9.75;1.30;;;;;;;0.87;100.00;100174.81;5086090;28;20391;-77
2021/12/02 08:18:01;;;;;;;35.38;2.20;;;;;;;0.82;100.00;100177.09;5081021;28;20035;-77
2021/12/02 08:20:28;;;;;;;8.60;1.23;;;;;;;0.80;100.00;100182.06;5083677;28;20028;-77
2021/12/02 08:22:54;;;;;;;8.82;1.55;;;;;;;0.78;100.00;100183.63;5084002;28;20110;-76
2021/12/02 08:25:20;;;;;;;9.25;1.75;;;;;;;0.90;100.00;100185.97;5082286;28;20124;-75
2021/12/02 08:27:47;;;;;;;7.80;1.65;;;;;;;1.22;100.00;100189.41;5088141;28;20025;-75
2021/12/02 08:30:15;;;;;;;9.60;2.35;;;;;;;1.41;100.00;100181.16;5085801;28;20092;-75
2021/12/02 08:32:43;;;;;;;11.73;2.20;;;;;;;1.54;100.00;100183.53;5082093;28;20043;-75
2021/12/02 08:35:10;;;;;;;7.65;2.05;;;;;;;1.54;100.00;100176.81;5083455;28;20447;-75
2021/12/02 08:37:39;;;;;;;8.68;1.98;;;;;;;1.53;100.00;100191.94;5084789;28;20071;-76
2021/12/02 08:40:05;;;;;;;7.47;2.00;;;;;;;1.61;100.00;100195.72;5065742;28;20028;-75
2021/12/02 08:42:34;;;;;;;9.40;2.20;;;;;;;1.81;100.00;100195.09;5093027;28;20035;-75
2021/12/02 08:45:00;;;;;;;11.73;2.10;;;;;;;2.30;100.00;100215.38;5089973;28;20031;-75
2021/12/02 08:47:27;;;;;;;9.40;2.20;;;;;;;2.80;100.00;100234.81;5092573;28;20111;-74
2021/12/02 08:49:54;;;;;;;7.22;1.80;;;;;;;2.92;100.00;100239.59;5091165;28;20040;-74
2021/12/02 08:52:26;;;;;;;7.25;1.70;;;;;;;2.76;100.00;100232.91;5086211;28;20037;-74
2021/12/02 08:54:52;;;;;;;5.72;1.27;;;;;;;2.54;100.00;100230.94;5090668;28;20024;-75
2021/12/02 08:57:19;;;;;;;11.32;1.40;;;;;;;2.41;100.00;100233.69;5089262;28;20034;-75
2021/12/02 08:59:45;;;;;;;24.35;2.03;;;;;;;2.38;100.00;100239.47;5087845;28;20024;-75
2021/12/02 09:02:11;;;;;;;10.45;1.75;;;;;;;2.42;100.00;100237.94;5072783;28;20152;-75
2021/12/02 09:04:38;;;;;;;6.30;1.48;;;;;;;2.68;100.00;100251.97;5089527;28;20378;-75
2021/12/02 09:07:05;;;;;;;11.70;1.75;;;;;;;2.98;100.00;100252.59;5087869;28;20463;-75
2021/12/02 09:09:30;;;;;;;7.88;1.48;;;;;;;3.19;100.00;100257.81;5095208;28;20031;-75
2021/12/02 09:11:57;;;;;;;6.07;1.23;;;;;;;2.98;100.00;100265.31;5091357;28;20475;-75
2021/12/02 09:14:22;;;;;;;6.95;1.23;;;;;;;2.73;100.00;100263.22;5092816;28;20046;-75
2021/12/02 09:16:49;;;;;;;8.80;1.40;;;;;;;2.59;100.00;100266.72;5084709;28;20027;-75
2021/12/02 09:19:15;;;;;;;7.90;1.23;;;;;;;2.45;100.00;100266.03;5089845;28;20040;-75
2021/12/02 09:21:41;;;;;;;9.63;1.35;;;;;;;2.38;100.00;100269.06;5091107;28;20028;-75
2021/12/02 09:24:06;;;;;;;5.85;1.27;;;;;;;2.31;100.00;100267.88;5086706;28;20138;-75
2021/12/02 09:26:32;;;;;;;8.68;1.33;;;;;;;2.33;100.00;100280.63;5091717;28;20040;-74
2021/12/02 09:28:58;;;;;;;8.73;1.50;;;;;;;2.42;100.00;100281.09;5088722;28;20039;-75
2021/12/02 09:31:24;;;;;;;8.57;1.85;;;;;;;2.55;100.00;100274.97;5086855;28;20032;-75
2021/12/02 09:33:51;;;;;;;11.52;1.58;;;;;;;2.71;100.00;100280.03;5088500;28;20048;-76
2021/12/02 09:36:18;;;;;;;5.20;1.50;;;;;;;2.79;100.00;100278.75;5088413;28;20115;-75
2021/12/02 09:38:45;;;;;;;6.43;1.42;;;;;;;2.83;100.00;100284.84;5088542;28;20698;-75
2021/12/02 09:41:11;;;;;;;7.70;1.60;;;;;;;2.80;100.00;100285.56;5088052;28;20024;-75
2021/12/02 09:43:37;;;;;;;8.50;1.98;;;;;;;2.73;100.00;100280.09;5088943;28;20058;-75
2021/12/02 09:46:02;;;;;;;10.60;1.67;;;;;;;2.66;100.00;100276.38;5086765;28;20668;-75
2021/12/02 09:48:28;;;;;;;8.73;2.20;;;;;;;3.54;100.00;100284.91;5089670;28;20031;-75
2021/12/02 09:51:12;;;;;;;5.38;1.63;;;;;;;5.04;100.00;100283.84;5088243;28;20482;-74
2021/12/02 09:54:05;;;;;;;4.90;1.40;;;;;;;6.74;88.17;100278.34;5087855;28;20038;-72
2021/12/02 09:56:28;;;;;;;6.40;1.50;;;;;;;8.49;82.71;100267.53;5091586;28;20044;-73
2021/12/02 09:58:58;;;;;;;4.60;1.00;;;;;;;9.69;75.49;100263.59;5089834;28;20359;-73
2021/12/02 10:01:30;;;;;;;3.83;1.20;;;;;;;10.44;72.23;100273.75;5088684;28;20019;-73
2021/12/02 10:04:02;;;;;;;6.93;1.33;;;;;;;11.54;66.10;100272.19;5086123;28;20051;-73
2021/12/02 10:06:31;;;;;;;4.72;1.15;;;;;;;11.49;62.31;100271.25;5084411;28;20104;-73
2021/12/02 10:09:09;;;;;;;4.18;1.15;;;;;;;10.15;68.35;100277.41;5087830;28;20031;-73
2021/12/02 10:11:53;;;;;;;4.18;1.08;;;;;;;8.90;69.93;100287.34;5087081;28;20042;-73
2021/12/02 10:14:26;;;;;;;4.88;1.30;;;;;;;9.34;76.64;100291.00;5086194;28;20024;-74
2021/12/02 10:17:11;;;;;;;5.55;1.27;;;;;;;10.50;74.41;100278.16;5067787;28;20154;-74
2021/12/02 10:19:37;;;;;;;3.58;1.20;;;;;;;10.86;67.44;100277.06;5086407;28;20027;-74
2021/12/02 10:22:07;;;;;;;2.80;1.20;;;;;;;9.95;68.36;100292.44;5086781;28;20032;-74
2021/12/02 10:24:43;;;;;;;3.60;1.10;;;;;;;8.93;70.02;100293.44;5085757;28;20031;-74
2021/12/02 10:27:12;;;;;;;3.60;1.15;;;;;;;7.78;74.09;100305.59;5086019;28;20031;-74
2021/12/02 10:29:39;;;;;;;5.63;1.20;;;;;;;7.08;76.92;100305.91;5088783;28;20028;-73
2021/12/02 10:32:04;;;;;;;3.70;1.15;;;;;;;6.83;78.11;100303.34;5087659;28;20319;-73
2021/12/02 10:34:30;;;;;;;4.45;1.13;;;;;;;7.11;77.07;100303.44;5084846;28;20155;-74
2021/12/02 10:37:09;;;;;;;5.07;1.30;;;;;;;7.90;78.48;100301.66;5087051;28;20765;-73
2021/12/02 10:39:34;;;;;;;2.30;1.00;;;;;;;9.65;70.45;100298.63;5088448;28;20024;-73
2021/12/02 10:42:07;;;;;;;1.48;0.50;;;;;;;10.64;67.52;100301.53;5085576;28;20289;-73
2021/12/02 10:44:35;;;;;;;3.05;0.70;;;;;;;10.74;65.67;100296.59;5085756;28;20032;-74
2021/12/02 10:47:09;;;;;;;4.03;0.75;;;;;;;11.96;63.87;100300.28;5089969;28;20031;-73
2021/12/02 10:49:50;;;;;;;1.85;0.55;;;;;;;13.17;62.55;100305.91;5086943;28;20479;-75
2021/12/02 10:52:25;;;;;;;1.63;0.60;;;;;;;14.07;56.63;100297.03;5107573;27;20032;-75
2021/12/02 10:55:11;;;;;;;2.33;0.80;;;;;;;14.32;56.42;100307.50;5088449;28;20378;-76
2021/12/02 10:57:45;;;;;;;1.23;0.50;;;;;;;14.47;53.01;100307.59;5089607;28;20073;-76
2021/12/02 11:00:13;;;;;;;1.17;0.40;;;;;;;12.65;55.77;100307.97;5086856;28;20027;-77
2021/12/02 11:02:43;;;;;;;3.60;0.50;;;;;;;10.35;60.69;100299.25;5088432;28;20543;-76
2021/12/02 11:05:19;;;;;;;2.60;0.55;;;;;;;8.85;67.48;100311.19;5087546;28;20036;-76
2021/12/02 11:07:53;;;;;;;1.15;0.50;;;;;;;7.90;71.76;100317.88;5091273;28;20466;-76
2021/12/02 11:10:19;;;;;;;2.42;0.60;;;;;;;6.92;74.09;100319.88;5090160;28;20028;-75
2021/12/02 11:12:48;;;;;;;1.95;0.70;;;;;;;6.39;76.79;100325.66;5089887;28;20027;-75
2021/12/02 11:15:25;;;;;;;3.75;0.57;;;;;;;6.02;78.73;100341.28;5092260;28;20459;-76
2021/12/02 11:17:59;;;;;;;1.70;0.60;;;;;;;5.89;79.72;100348.44;5089000;28;20470;-76
2021/12/02 11:20:37;;;;;;;2.40;0.65;;;;;;;6.69;79.10;100336.09;5088620;28;20111;-76
2021/12/02 11:23:04;;;;;;;1.42;0.50;;;;;;;7.55;75.75;100337.25;5086878;28;20038;-75
2021/12/02 11:25:31;;;;;;;1.83;0.60;;;;;;;7.32;77.37;100339.06;5092013;28;20026;-76
2021/12/02 11:27:57;;;;;;;2.50;0.60;;;;;;;6.94;76.16;100343.78;5088532;28;20108;-76
2021/12/02 11:30:24;;;;;;;2.58;0.50;;;;;;;6.90;77.71;100338.50;5088089;28;20111;-76
2021/12/02 11:32:52;;;;;;;1.77;0.43;;;;;;;6.92;79.71;100342.00;5088627;28;20048;-76
2021/12/02 11:35:22;;;;;;;1.90;0.40;;;;;;;7.16;77.65;100340.28;5082997;28;20525;-76
2021/12/02 11:37:58;;;;;;;4.20;0.65;;;;;;;7.41;75.75;100328.28;5092333;28;20039;-76
2021/12/02 11:40:27;;;;;;;1.02;0.47;;;;;;;7.24;75.43;100336.28;5089892;28;20086;-75
2021/12/02 11:42:53;;;;;;;3.13;0.70;;;;;;;6.94;79.58;100330.13;5088308;28;20569;-75
2021/12/02 11:45:22;;;;;;;1.75;0.70;;;;;;;6.41;80.59;100332.53;5088895;28;20051;-76
2021/12/02 11:47:49;;;;;;;1.73;0.60;;;;;;;5.99;82.99;100320.75;5087318;28;20032;-77